createdAt,value
2018-12-01T00:00:42.709Z,16.47
2018-12-01T00:05:24.332Z,12.63
2018-12-01T00:10:04.494Z,12.67
2018-12-01T00:14:44.652Z,15.70
2018-12-01T00:19:25.312Z,15.00
2018-12-01T00:24:05.133Z,15.27
2018-12-01T00:28:45.371Z,13.50
2018-12-01T00:33:25.410Z,16.27
2018-12-01T00:38:05.543Z,16.90
2018-12-01T00:42:45.413Z,19.20
2018-12-01T00:47:25.444Z,19.47
2018-12-01T00:52:06.142Z,11.30
2018-12-01T00:56:46.128Z,15.50
2018-12-01T01:01:26.077Z,16.40
2018-12-01T01:06:06.863Z,12.50
2018-12-01T01:10:47.078Z,19.20
2018-12-01T01:15:27.270Z,16.93
2018-12-01T01:20:10.641Z,11.97
2018-12-01T01:24:50.485Z,14.67
2018-12-01T01:29:30.456Z,17.37
2018-12-01T01:34:10.732Z,23.93
2018-12-01T01:38:51.293Z,31.67
2018-12-01T01:43:31.453Z,27.83
2018-12-01T01:48:11.445Z,14.23
2018-12-01T01:52:51.594Z,15.57
2018-12-01T01:57:31.657Z,40.23
2018-12-01T02:02:12.467Z,37.83
2018-12-01T02:06:52.632Z,38.73
2018-12-01T02:11:32.960Z,38.23
2018-12-01T02:16:13.032Z,32.50
2018-12-01T02:20:53.056Z,30.33
2018-12-01T02:25:33.323Z,29.20
2018-12-01T02:30:17.489Z,25.50
2018-12-01T02:34:57.545Z,27.07
2018-12-01T02:39:38.013Z,59.73
2018-12-01T02:44:29.524Z,58.13
2018-12-01T02:49:09.583Z,39.50
2018-12-01T02:53:49.566Z,44.57
2018-12-01T02:58:29.639Z,39.63
2018-12-01T03:03:09.704Z,37.33
2018-12-01T03:07:49.865Z,32.80
2018-12-01T03:12:29.673Z,25.07
2018-12-01T03:17:10.086Z,22.63
2018-12-01T03:21:50.477Z,47.53
2018-12-01T03:26:30.461Z,59.37
2018-12-01T03:31:10.757Z,39.33
2018-12-01T03:35:50.788Z,55.00
2018-12-01T03:40:35.166Z,37.10
2018-12-01T03:45:18.169Z,42.87
2018-12-01T03:49:57.889Z,39.10
2018-12-01T03:54:38.639Z,31.90
2018-12-01T03:59:18.763Z,26.53
2018-12-01T04:03:58.739Z,26.77
2018-12-01T04:08:39.509Z,22.47
2018-12-01T04:13:20.981Z,22.47
2018-12-01T04:18:01.212Z,22.60
2018-12-01T04:22:41.583Z,19.97
2018-12-01T04:27:21.813Z,19.73
2018-12-01T04:32:01.941Z,17.10
2018-12-01T04:36:42.929Z,23.60
2018-12-01T04:41:23.141Z,20.37
2018-12-01T04:46:03.176Z,15.87
2018-12-01T04:50:44.474Z,25.00
2018-12-01T04:55:25.500Z,19.53
2018-12-01T05:00:08.670Z,21.17
2018-12-01T05:04:49.469Z,18.37
2018-12-01T05:09:30.555Z,21.37
2018-12-01T05:14:10.444Z,19.33
2018-12-01T05:18:50.945Z,18.47
2018-12-01T05:23:31.392Z,21.67
2018-12-01T05:28:12.146Z,17.40
2018-12-01T05:32:52.512Z,15.83
2018-12-01T05:37:33.296Z,22.00
2018-12-01T05:42:13.564Z,19.23
2018-12-01T05:46:53.791Z,20.53
2018-12-01T05:51:34.302Z,14.27
2018-12-01T05:56:14.567Z,18.80
2018-12-01T06:00:54.958Z,18.53
2018-12-01T06:05:35.308Z,17.27
2018-12-01T06:10:23.154Z,23.37
2018-12-01T06:15:03.486Z,13.33
2018-12-01T06:19:44.135Z,22.37
2018-12-01T06:24:24.753Z,15.23
2018-12-01T06:29:05.622Z,16.13
2018-12-01T06:33:46.597Z,22.60
2018-12-01T06:38:27.253Z,15.23
2018-12-01T06:43:07.296Z,13.63
2018-12-01T06:47:47.349Z,19.80
2018-12-01T06:52:29.512Z,18.67
2018-12-01T06:57:09.599Z,12.90
2018-12-01T07:01:50.317Z,19.73
2018-12-01T07:06:30.476Z,22.67
2018-12-01T07:11:12.124Z,17.27
2018-12-01T07:15:52.042Z,18.17
2018-12-01T07:20:33.213Z,20.25
2018-12-01T07:25:13.169Z,23.55
2018-12-01T07:29:57.958Z,19.52
2018-12-01T07:34:33.548Z,19.20
2018-12-01T07:39:14.594Z,20.37
2018-12-01T07:43:55.317Z,16.15
2018-12-01T07:48:35.797Z,18.52
2018-12-01T07:53:17.552Z,23.23
2018-12-01T07:57:56.825Z,19.77
2018-12-01T08:02:37.744Z,14.28
2018-12-01T08:07:18.062Z,22.50
2018-12-01T08:11:58.421Z,20.97
2018-12-01T08:16:38.575Z,21.12
2018-12-01T08:21:19.816Z,18.15
2018-12-01T08:25:59.663Z,23.00
2018-12-01T08:30:40.593Z,22.22
2018-12-01T08:35:20.755Z,17.55
2018-12-01T08:40:00.875Z,17.23
2018-12-01T08:44:40.879Z,16.00
2018-12-01T08:49:20.949Z,20.20
2018-12-01T08:54:01.021Z,21.27
2018-12-01T08:58:41.072Z,20.50
2018-12-01T09:03:22.619Z,17.15
2018-12-01T09:08:02.641Z,25.85
2018-12-01T09:12:42.688Z,21.95
2018-12-01T09:17:22.746Z,20.65
2018-12-01T09:22:02.728Z,19.05
2018-12-01T09:26:43.794Z,19.82
2018-12-01T09:31:25.054Z,28.47
2018-12-01T09:36:05.353Z,17.98
2018-12-01T09:40:45.992Z,18.20
2018-12-01T09:45:26.693Z,17.17
2018-12-01T09:50:09.660Z,30.32
2018-12-01T09:54:50.208Z,15.00
2018-12-01T09:59:30.319Z,12.68
2018-12-01T10:04:10.527Z,8.83
2018-12-01T10:08:50.583Z,8.78
2018-12-01T10:13:30.881Z,14.33
2018-12-01T10:18:11.445Z,14.35
2018-12-01T10:22:51.493Z,19.82
2018-12-01T10:27:31.700Z,11.28
2018-12-01T10:32:12.760Z,23.10
2018-12-01T10:36:53.445Z,16.07
2018-12-01T10:41:33.770Z,10.40
2018-12-01T10:46:15.394Z,12.18
2018-12-01T10:50:57.144Z,11.08
2018-12-01T10:55:37.297Z,10.98
2018-12-01T11:00:22.821Z,10.10
2018-12-01T11:05:02.933Z,10.10
2018-12-01T11:09:43.269Z,8.98
2018-12-01T11:14:23.524Z,14.83
2018-12-01T11:19:03.622Z,9.78
2018-12-01T11:23:43.626Z,12.03
2018-12-01T11:28:24.989Z,8.25
2018-12-01T11:33:04.845Z,12.50
2018-12-01T11:37:44.825Z,9.88
2018-12-01T11:42:25.017Z,10.55
2018-12-01T11:47:05.292Z,11.20
2018-12-01T11:51:45.699Z,9.75
2018-12-01T11:56:25.715Z,10.60
2018-12-01T12:01:06.784Z,10.50
2018-12-01T12:05:47.404Z,7.10
2018-12-01T12:10:27.528Z,10.53
2018-12-01T12:15:09.241Z,12.90
2018-12-01T12:19:49.897Z,8.50
2018-12-01T12:24:29.865Z,11.97
2018-12-01T12:29:09.855Z,5.50
2018-12-01T12:33:49.861Z,9.23
2018-12-01T12:38:29.902Z,8.10
2018-12-01T12:43:10.248Z,13.10
2018-12-01T12:47:50.361Z,11.57
2018-12-01T12:52:30.513Z,10.03
2018-12-01T12:57:10.721Z,11.48
2018-12-01T13:01:50.560Z,8.78
2018-12-01T13:06:30.658Z,13.00
2018-12-01T13:11:10.597Z,13.13
2018-12-01T13:15:50.552Z,8.50
2018-12-01T13:20:30.904Z,8.80
2018-12-01T13:25:14.000Z,14.43
2018-12-01T13:29:54.072Z,11.97
2018-12-01T13:34:34.298Z,7.17
2018-12-01T13:39:14.372Z,12.82
2018-12-01T13:43:54.549Z,14.23
2018-12-01T13:48:34.608Z,10.68
2018-12-01T13:53:15.090Z,8.50
2018-12-01T13:57:55.126Z,14.63
2018-12-01T14:02:35.145Z,9.60
2018-12-01T14:07:15.205Z,5.70
2018-12-01T14:11:55.465Z,21.52
2018-12-01T14:16:35.493Z,18.12
2018-12-01T14:21:15.801Z,8.68
2018-12-01T14:25:55.669Z,11.73
2018-12-01T14:30:35.540Z,8.40
2018-12-01T14:35:18.661Z,6.67
2018-12-01T14:39:58.404Z,6.53
2018-12-01T14:44:38.384Z,11.05
2018-12-01T14:49:18.911Z,7.37
2018-12-01T14:53:58.874Z,10.15
2018-12-01T14:58:42.399Z,7.78
2018-12-01T15:03:19.041Z,5.55
2018-12-01T15:07:59.325Z,6.87
2018-12-01T15:12:39.921Z,5.30
2018-12-01T15:17:20.105Z,9.23
2018-12-01T15:22:00.479Z,8.38
2018-12-01T15:26:41.176Z,9.80
2018-12-01T15:31:21.525Z,8.08
2018-12-01T15:36:02.288Z,7.45
2018-12-01T15:40:44.701Z,7.17
2018-12-01T15:45:25.413Z,7.72
2018-12-01T15:50:06.482Z,8.53
2018-12-01T15:54:46.525Z,7.85
2018-12-01T15:59:26.672Z,9.13
2018-12-01T16:04:07.117Z,9.53
2018-12-01T16:08:47.336Z,8.80
2018-12-01T16:13:28.352Z,13.13
2018-12-01T16:18:08.904Z,9.37
2018-12-01T16:22:48.929Z,8.43
2018-12-01T16:27:29.074Z,11.35
2018-12-01T16:32:09.679Z,13.43
2018-12-01T16:36:49.808Z,11.65
2018-12-01T16:41:34.156Z,10.45
2018-12-01T16:46:14.249Z,12.83
2018-12-01T16:50:54.152Z,11.10
2018-12-01T16:55:34.528Z,11.30
2018-12-01T17:00:15.909Z,9.97
2018-12-01T17:04:55.996Z,9.57
2018-12-01T17:09:36.036Z,10.27
2018-12-01T17:14:15.968Z,10.63
2018-12-01T17:18:56.089Z,9.27
2018-12-01T17:23:35.977Z,11.87
2018-12-01T17:28:19.405Z,8.87
2018-12-01T17:33:00.055Z,10.37
2018-12-01T17:37:41.416Z,9.37
2018-12-01T17:42:21.756Z,10.70
2018-12-01T17:47:01.727Z,8.83
2018-12-01T17:51:41.565Z,17.70
2018-12-01T17:56:21.535Z,12.28
2018-12-01T18:01:01.563Z,8.90
2018-12-01T18:05:43.240Z,10.95
2018-12-01T18:10:23.288Z,11.90
2018-12-01T18:15:08.180Z,9.17
2018-12-01T18:19:48.560Z,10.27
2018-12-01T18:24:28.543Z,10.60
2018-12-01T18:29:08.515Z,10.23
2018-12-01T18:33:54.720Z,11.23
2018-12-01T18:38:34.816Z,7.65
2018-12-01T18:43:14.481Z,9.15
2018-12-01T18:47:54.316Z,7.97
2018-12-01T18:52:34.244Z,11.88
2018-12-01T18:57:14.084Z,10.90
2018-12-01T19:01:53.945Z,8.43
2018-12-01T19:06:33.927Z,9.73
2018-12-01T19:11:13.862Z,8.20
2018-12-01T19:15:53.757Z,7.72
2018-12-01T19:20:33.640Z,7.12
2018-12-01T19:25:17.412Z,7.05
2018-12-01T19:29:57.183Z,8.48
2018-12-01T19:34:37.401Z,8.13
2018-12-01T19:39:17.556Z,8.00
2018-12-01T19:43:57.331Z,9.35
2018-12-01T19:48:37.292Z,10.93
2018-12-01T19:53:18.169Z,10.43
2018-12-01T19:57:57.957Z,9.73
2018-12-01T20:02:37.873Z,8.58
2018-12-01T20:07:17.585Z,6.15
2018-12-01T20:11:57.476Z,7.15
2018-12-01T20:16:39.308Z,8.73
2018-12-01T20:21:19.519Z,9.38
2018-12-01T20:25:59.531Z,8.38
2018-12-01T20:30:39.453Z,7.30
2018-12-01T20:35:37.680Z,9.30
2018-12-01T20:40:17.972Z,7.15
2018-12-01T20:44:57.816Z,10.75
2018-12-01T20:49:37.501Z,8.60
2018-12-01T20:54:30.256Z,8.28
2018-12-01T20:59:10.029Z,7.80
2018-12-01T21:03:50.072Z,7.90
2018-12-01T21:08:29.804Z,8.93
2018-12-01T21:13:09.842Z,5.13
2018-12-01T21:17:49.971Z,8.47
2018-12-01T21:22:30.351Z,10.23
2018-12-01T21:27:11.025Z,9.37
2018-12-01T21:31:51.233Z,8.38
2018-12-01T21:36:31.261Z,7.90
2018-12-01T21:41:11.104Z,7.93
2018-12-01T21:45:51.798Z,4.80
2018-12-01T21:50:32.000Z,7.30
2018-12-01T21:55:12.481Z,10.00
2018-12-01T21:59:53.185Z,6.40
2018-12-01T22:04:33.261Z,7.73
2018-12-01T22:09:13.376Z,9.15
2018-12-01T22:13:53.833Z,7.40
2018-12-01T22:18:33.865Z,5.70
2018-12-01T22:23:15.676Z,8.00
2018-12-01T22:27:56.809Z,12.13
2018-12-01T22:32:36.777Z,9.88
2018-12-01T22:37:17.094Z,7.10
2018-12-01T22:41:57.162Z,8.20
2018-12-01T22:46:37.684Z,7.17
2018-12-01T22:51:17.640Z,5.60
2018-12-01T22:55:57.707Z,12.27
2018-12-01T23:00:42.089Z,8.50
2018-12-01T23:05:22.045Z,10.33
2018-12-01T23:10:02.451Z,10.40
2018-12-01T23:14:42.524Z,6.67
2018-12-01T23:19:22.604Z,8.00
2018-12-01T23:24:02.773Z,7.93
2018-12-01T23:28:42.720Z,8.33
2018-12-01T23:33:25.055Z,6.43
2018-12-01T23:38:05.081Z,5.70
2018-12-01T23:42:45.072Z,6.23
2018-12-01T23:47:25.224Z,7.70
2018-12-01T23:52:05.424Z,7.33
2018-12-01T23:56:45.523Z,5.13
